Frobisher, Canada
Current Conditions -  °F | °C
As of 11:00 PM on Saturday 25 Oct 2014 (Local Time) from CYEN Reporting Station
Few Clouds Few Clouds  
Wind Chill: 32°   Ceiling: Unl
Heat Index: 39°   Visibility: 15mi
Dew Point: 32°   Wind: 13mph
Humidity: 75%   Direction: 100°E
Pressure: 29.8"   Gusts: NA
Location:  49.2°N, 102.42°W
Report Text: CYEN 260500Z 10011KT 15SM FEW160 04/M00 A2980 RMK AC1 SLP114
Loading
Personal Weather Stations






























Interactive Weather Map
Tropical Storm Tracking
New forecast layout! Learn more

10-Day Weather Forecast

Advertisements
Track Severe Weather on mobile